createdAt,value
2023-03-03T00:00:05.709Z,102620.91
2023-03-03T00:05:07.471Z,102625.50
2023-03-03T00:10:09.484Z,102622.94
2023-03-03T00:15:22.784Z,102627.38
2023-03-03T00:20:35.493Z,102620.31
2023-03-03T00:25:37.183Z,102624.84
2023-03-03T00:30:38.657Z,102628.31
2023-03-03T00:35:41.495Z,102625.41
2023-03-03T00:40:43.178Z,102619.88
2023-03-03T00:45:55.754Z,102620.75
2023-03-03T00:51:02.008Z,102627.75
2023-03-03T00:56:03.559Z,102629.34
2023-03-03T01:01:05.242Z,102623.97
2023-03-03T01:06:07.408Z,102618.19
2023-03-03T01:11:13.828Z,102620.59
2023-03-03T01:16:15.506Z,102622.50
2023-03-03T01:21:17.095Z,102620.66
2023-03-03T01:26:18.605Z,102632.41
2023-03-03T01:31:20.390Z,102620.09
2023-03-03T01:36:26.809Z,102628.31
2023-03-03T01:41:30.194Z,102632.28
2023-03-03T01:46:56.575Z,102635.03
2023-03-03T01:52:11.908Z,102634.16
2023-03-03T01:57:28.678Z,102619.03
2023-03-03T02:02:31.441Z,102619.97
2023-03-03T02:07:33.530Z,102609.25
2023-03-03T02:12:48.351Z,102610.28
2023-03-03T02:17:54.438Z,102607.72
2023-03-03T02:23:07.723Z,102603.50
2023-03-03T02:28:09.413Z,102599.50
2023-03-03T02:33:10.891Z,102611.44
2023-03-03T02:38:15.002Z,102602.75
2023-03-03T02:43:19.672Z,102602.28
2023-03-03T02:48:21.128Z,102604.28
2023-03-03T02:53:22.670Z,102606.25
2023-03-03T02:58:24.271Z,102599.50
2023-03-03T03:03:25.739Z,102607.03
2023-03-03T03:08:27.211Z,102605.56
2023-03-03T03:13:28.780Z,102604.69
2023-03-03T03:18:30.307Z,102602.84
2023-03-03T03:23:32.011Z,102598.72
2023-03-03T03:28:34.057Z,102606.59
2023-03-03T03:33:36.278Z,102610.13
2023-03-03T03:38:39.196Z,102621.09
2023-03-03T03:43:40.970Z,102614.88
2023-03-03T03:48:42.462Z,102617.09
2023-03-03T03:53:43.972Z,102614.97
2023-03-03T03:58:45.479Z,102610.53
2023-03-03T04:03:47.182Z,102611.81
2023-03-03T04:08:48.720Z,102614.38
2023-03-03T04:13:50.306Z,102619.44
2023-03-03T04:18:51.828Z,102614.25
2023-03-03T04:23:53.730Z,102607.16
2023-03-03T04:28:55.251Z,102614.59
2023-03-03T04:33:56.810Z,102619.56
2023-03-03T04:38:58.355Z,102624.66
2023-03-03T04:43:59.902Z,102616.63
2023-03-03T04:49:01.528Z,102613.88
2023-03-03T04:54:03.093Z,102625.63
2023-03-03T04:59:04.598Z,102619.31
2023-03-03T05:04:06.271Z,102620.56
2023-03-03T05:09:07.892Z,102618.28
2023-03-03T05:14:09.453Z,102624.19
2023-03-03T05:19:10.943Z,102615.97
2023-03-03T05:24:13.932Z,102616.50
2023-03-03T05:29:15.434Z,102618.56
2023-03-03T05:34:16.977Z,102615.78
2023-03-03T05:39:18.715Z,102621.03
2023-03-03T05:44:20.819Z,102619.13
2023-03-03T05:49:22.428Z,102621.63
2023-03-03T05:54:23.991Z,102619.38
2023-03-03T05:59:25.534Z,102634.56
2023-03-03T06:04:27.044Z,102630.97
2023-03-03T06:09:28.630Z,102618.56
2023-03-03T06:14:30.275Z,102633.91
2023-03-03T06:19:32.122Z,102641.97
2023-03-03T06:24:34.041Z,102632.19
2023-03-03T06:29:35.550Z,102640.13
2023-03-03T06:34:37.135Z,102638.22
2023-03-03T06:39:38.789Z,102634.56
2023-03-03T06:44:40.305Z,102636.34
2023-03-03T06:49:41.864Z,102639.19
2023-03-03T06:54:43.402Z,102648.88
2023-03-03T06:59:47.422Z,102659.66
2023-03-03T07:04:49.309Z,102653.41
2023-03-03T07:09:53.678Z,102651.63
2023-03-03T07:15:10.420Z,102666.34
2023-03-03T07:20:19.644Z,102658.31
2023-03-03T07:25:30.808Z,102667.53
2023-03-03T07:30:32.935Z,102668.84
2023-03-03T07:35:41.083Z,102680.53
2023-03-03T07:40:47.626Z,102690.81
2023-03-03T07:45:49.315Z,102688.63
2023-03-03T07:50:51.581Z,102697.38
2023-03-03T07:55:53.440Z,102700.84
2023-03-03T08:01:39.966Z,102712.28
2023-03-03T08:06:46.751Z,102708.16
2023-03-03T08:12:09.349Z,102717.44
2023-03-03T08:17:36.987Z,102723.56
2023-03-03T08:22:38.634Z,102722.28
2023-03-03T08:27:40.118Z,102725.94
2023-03-03T08:32:41.737Z,102728.94
2023-03-03T08:37:43.336Z,102732.31
2023-03-03T08:42:44.950Z,102726.72
2023-03-03T08:47:46.806Z,102712.53
2023-03-03T08:52:48.336Z,102717.69
2023-03-03T08:57:49.888Z,102717.44
2023-03-03T09:02:51.669Z,102718.31
2023-03-03T09:07:53.637Z,102717.53
2023-03-03T09:12:58.946Z,102717.06
2023-03-03T09:18:23.695Z,102714.03
2023-03-03T09:23:33.957Z,102715.72
2023-03-03T09:28:36.158Z,102716.75
2023-03-03T09:33:43.958Z,102710.00
2023-03-03T09:38:45.974Z,102723.03
2023-03-03T09:43:59.238Z,102714.53
2023-03-03T09:49:35.105Z,102717.31
2023-03-03T09:54:50.462Z,102716.38
2023-03-03T10:00:06.456Z,102734.81
2023-03-03T10:05:41.671Z,102729.59
2023-03-03T10:11:01.570Z,102725.75
2023-03-03T10:16:12.177Z,102736.81
2023-03-03T10:21:59.331Z,102737.56
2023-03-03T10:27:30.375Z,102736.28
2023-03-03T10:33:01.091Z,102737.41
2023-03-03T10:38:18.692Z,102741.28
2023-03-03T10:43:31.733Z,102737.81
2023-03-03T10:49:02.295Z,102744.69
2023-03-03T10:54:21.058Z,102747.66
2023-03-03T10:59:50.367Z,102737.31
2023-03-03T11:05:10.582Z,102741.78
2023-03-03T11:10:33.937Z,102742.22
2023-03-03T11:15:47.625Z,102742.56
2023-03-03T11:21:23.126Z,102739.69
2023-03-03T11:26:24.786Z,102734.69
2023-03-03T11:31:37.156Z,102733.41
2023-03-03T11:36:46.042Z,102736.63
2023-03-03T11:48:11.617Z,102729.97
2023-03-03T11:53:29.459Z,102731.69
2023-03-03T11:58:40.168Z,102727.75
2023-03-03T12:03:48.922Z,102722.97
2023-03-03T12:09:18.633Z,102728.19
2023-03-03T12:14:38.893Z,102731.88
2023-03-03T12:19:55.322Z,102727.06
2023-03-03T12:25:16.230Z,102723.94
2023-03-03T12:30:52.747Z,102726.16
2023-03-03T12:36:12.225Z,102719.41
2023-03-03T12:41:34.979Z,102712.63
2023-03-03T12:46:59.643Z,102716.97
2023-03-03T12:52:31.509Z,102696.88
2023-03-03T12:57:48.710Z,102698.97
2023-03-03T13:02:58.771Z,102698.31
2023-03-03T13:08:09.163Z,102701.94
2023-03-03T13:13:22.731Z,102699.22
2023-03-03T13:18:48.671Z,102702.81
2023-03-03T13:23:53.045Z,102698.44
2023-03-03T13:29:04.600Z,102697.69
2023-03-03T13:34:23.649Z,102697.75
2023-03-03T13:39:42.875Z,102691.81
2023-03-03T13:44:46.998Z,102685.38
2023-03-03T13:50:04.213Z,102687.59
2023-03-03T13:55:05.641Z,102681.06
2023-03-03T14:00:21.336Z,102679.13
2023-03-03T14:05:28.585Z,102683.03
2023-03-03T14:10:59.933Z,102660.59
2023-03-03T14:16:16.965Z,102656.81
2023-03-03T14:21:27.304Z,102662.78
2023-03-03T14:26:28.837Z,102663.44
2023-03-03T14:31:39.675Z,102655.72
2023-03-03T14:36:43.499Z,102654.38
2023-03-03T14:41:44.999Z,102657.31
2023-03-03T14:46:46.535Z,102644.94
2023-03-03T14:51:50.173Z,102650.75
2023-03-03T14:57:10.732Z,102633.28
2023-03-03T15:02:18.471Z,102637.78
2023-03-03T15:07:33.281Z,102635.00
2023-03-03T15:12:37.175Z,102635.13
2023-03-03T15:17:44.469Z,102631.84
2023-03-03T15:22:48.574Z,102628.03
2023-03-03T15:27:53.374Z,102628.03
2023-03-03T15:33:14.247Z,102620.13
2023-03-03T15:38:26.729Z,102616.91
2023-03-03T15:43:46.024Z,102616.28
2023-03-03T15:49:12.202Z,102618.59
2023-03-03T15:54:26.346Z,102617.66
2023-03-03T15:59:58.501Z,102618.78
2023-03-03T16:05:08.277Z,102612.19
2023-03-03T16:10:47.199Z,102613.09
2023-03-03T16:16:00.685Z,102619.75
2023-03-03T16:21:27.097Z,102613.38
2023-03-03T16:27:05.999Z,102614.44
2023-03-03T16:32:10.520Z,102618.91
2023-03-03T16:37:23.188Z,102616.59
2023-03-03T16:42:33.056Z,102613.00
2023-03-03T16:47:41.955Z,102611.06
2023-03-03T16:52:48.127Z,102619.09
2023-03-03T16:58:01.501Z,102625.25
2023-03-03T17:03:19.569Z,102622.19
2023-03-03T17:08:26.864Z,102629.72
2023-03-03T17:13:28.317Z,102622.41
2023-03-03T17:18:44.671Z,102627.03
2023-03-03T17:24:14.066Z,102622.38
2023-03-03T17:29:57.207Z,102617.53
2023-03-03T17:35:20.260Z,102624.81
2023-03-03T17:40:37.574Z,102624.53
2023-03-03T17:45:43.175Z,102628.00
2023-03-03T17:50:59.980Z,102631.09
2023-03-03T17:56:20.092Z,102629.16
2023-03-03T18:01:39.807Z,102637.00
2023-03-03T18:07:05.846Z,102645.03
2023-03-03T18:12:07.274Z,102649.50
2023-03-03T18:17:42.714Z,102645.03
2023-03-03T18:22:55.020Z,102644.84
2023-03-03T18:27:59.524Z,102646.69
2023-03-03T18:33:10.158Z,102649.50
2023-03-03T18:38:17.620Z,102640.22
2023-03-03T18:43:43.926Z,102647.38
2023-03-03T18:49:06.704Z,102640.28
2023-03-03T18:54:17.363Z,102645.13
2023-03-03T18:59:34.172Z,102644.56
2023-03-03T19:04:37.529Z,102657.94
2023-03-03T19:09:56.969Z,102653.84
2023-03-03T19:14:58.694Z,102656.78
2023-03-03T19:20:18.048Z,102658.97
2023-03-03T19:25:28.118Z,102658.91
2023-03-03T19:30:56.089Z,102669.47
2023-03-03T19:36:25.159Z,102667.50
2023-03-03T19:41:52.835Z,102676.03
2023-03-03T19:46:55.932Z,102670.63
2023-03-03T19:52:22.563Z,102680.66
2023-03-03T19:57:35.101Z,102682.03
2023-03-03T20:02:42.277Z,102682.03
2023-03-03T20:07:59.439Z,102685.13
2023-03-03T20:13:30.506Z,102681.47
2023-03-03T20:19:00.785Z,102687.84
2023-03-03T20:24:16.624Z,102689.88
2023-03-03T20:29:50.173Z,102693.72
2023-03-03T20:35:16.469Z,102677.75
2023-03-03T20:40:38.175Z,102694.00
2023-03-03T20:46:02.890Z,102697.53
2023-03-03T20:51:29.975Z,102707.28
2023-03-03T20:56:43.916Z,102698.00
2023-03-03T21:02:16.086Z,102708.16
2023-03-03T21:07:26.643Z,102703.72
2023-03-03T21:12:30.716Z,102702.84
2023-03-03T21:17:32.353Z,102704.00
2023-03-03T21:22:33.867Z,102707.75
2023-03-03T21:27:37.103Z,102710.66
2023-03-03T21:32:42.917Z,102711.44
2023-03-03T21:37:48.749Z,102717.72
2023-03-03T21:42:52.036Z,102716.50
2023-03-03T21:47:55.042Z,102723.13
2023-03-03T21:52:56.575Z,102717.81
2023-03-03T21:57:58.116Z,102720.25
2023-03-03T22:02:59.939Z,102720.69
2023-03-03T22:08:01.490Z,102717.59
2023-03-03T22:13:03.018Z,102706.75
2023-03-03T22:18:04.595Z,102705.69
2023-03-03T22:23:06.057Z,102711.50
2023-03-03T22:28:07.667Z,102703.03
2023-03-03T22:33:09.345Z,102702.28
2023-03-03T22:38:10.931Z,102711.75
2023-03-03T22:43:14.513Z,102698.03
2023-03-03T22:48:16.003Z,102703.25
2023-03-03T22:53:18.050Z,102704.06
2023-03-03T22:58:20.652Z,102703.78
2023-03-03T23:03:22.627Z,102700.09
2023-03-03T23:08:24.512Z,102697.38
2023-03-03T23:13:27.117Z,102697.56
2023-03-03T23:18:29.552Z,102704.06
2023-03-03T23:23:31.824Z,102693.88
2023-03-03T23:28:33.374Z,102698.22
2023-03-03T23:33:35.402Z,102690.25
2023-03-03T23:38:36.942Z,102682.78
2023-03-03T23:43:38.728Z,102689.28
2023-03-03T23:48:40.266Z,102692.09
2023-03-03T23:53:41.805Z,102684.78
2023-03-03T23:58:43.350Z,102686.41
